Time;durP1;ratioP1;P1;durP2;ratioP2;P2;SDS_P1;SDS_P2;PMS_P1;PMS_P2;Temp;Humidity;BMP_temperature;BMP_pressure;BME280_temperature;BME280_humidity;BME280_pressure;Samples;Min_cycle;Max_cycle;Signal;HPM_P1;HPM_P2
2023/08/17 00:01:27;;;;;;;5.63;2.80;;;16.70;99.90;;;;;;5067720;28;20255;-52
2023/08/17 00:03:53;;;;;;;5.90;3.22;;;16.70;99.90;;;;;;5064053;28;20045;-55
2023/08/17 00:06:19;;;;;;;8.70;3.45;;;16.70;99.90;;;;;;5073550;28;20036;-52
2023/08/17 00:08:44;;;;;;;8.00;3.20;;;16.70;99.90;;;;;;5068067;28;20041;-54
2023/08/17 00:11:10;;;;;;;7.00;2.83;;;16.60;99.90;;;;;;5070171;28;20123;-54
2023/08/17 00:13:36;;;;;;;7.38;3.25;;;16.60;99.90;;;;;;5066085;28;20446;-54
2023/08/17 00:16:02;;;;;;;6.82;3.53;;;16.60;99.90;;;;;;5070683;28;20418;-54
2023/08/17 00:18:28;;;;;;;6.05;3.10;;;16.60;99.90;;;;;;5067636;28;20106;-50
2023/08/17 00:20:53;;;;;;;6.93;3.22;;;16.60;99.90;;;;;;5058103;28;20029;-55
2023/08/17 00:23:20;;;;;;;5.75;3.13;;;16.50;99.90;;;;;;5043722;28;20060;-57
2023/08/17 00:25:47;;;;;;;5.35;2.78;;;16.50;99.90;;;;;;5060607;28;20384;-55
2023/08/17 00:28:13;;;;;;;7.65;3.35;;;16.50;99.90;;;;;;5066093;28;20498;-54
2023/08/17 00:30:39;;;;;;;7.10;2.95;;;16.50;99.90;;;;;;5055186;28;20045;-52
2023/08/17 00:33:05;;;;;;;6.57;2.90;;;16.50;99.90;;;;;;5065057;28;20128;-52
2023/08/17 00:35:32;;;;;;;7.47;2.80;;;16.50;99.90;;;;;;5065155;28;20059;-51
2023/08/17 00:37:59;;;;;;;6.78;2.85;;;16.40;99.90;;;;;;5077164;28;20355;-54
2023/08/17 00:40:24;;;;;;;8.50;3.15;;;16.40;99.90;;;;;;5065506;28;20049;-54
2023/08/17 00:42:51;;;;;;;8.20;3.25;;;16.40;99.90;;;;;;5064768;28;20052;-54
2023/08/17 00:45:18;;;;;;;5.15;2.55;;;16.40;99.90;;;;;;5061965;28;20561;-51
2023/08/17 00:47:44;;;;;;;6.93;2.97;;;16.30;99.90;;;;;;5069602;28;20526;-54
2023/08/17 00:50:11;;;;;;;8.52;3.42;;;16.30;99.90;;;;;;5075393;28;20040;-52
2023/08/17 00:52:38;;;;;;;11.90;3.38;;;16.30;99.90;;;;;;5054213;28;20517;-54
2023/08/17 00:55:04;;;;;;;7.18;2.78;;;16.30;99.90;;;;;;5066829;28;20344;-52
2023/08/17 00:57:32;;;;;;;5.65;2.22;;;16.30;99.90;;;;;;5064886;28;20048;-50
2023/08/17 00:59:58;;;;;;;6.75;2.75;;;16.20;99.90;;;;;;5060766;28;20048;-50
2023/08/17 01:02:25;;;;;;;7.57;3.25;;;16.20;99.90;;;;;;5084449;28;20123;-50
2023/08/17 01:04:50;;;;;;;7.50;3.17;;;16.20;99.90;;;;;;5081633;28;20047;-52
2023/08/17 01:07:16;;;;;;;5.95;2.50;;;16.20;99.90;;;;;;5067505;28;20202;-51
2023/08/17 01:09:42;;;;;;;11.45;3.80;;;16.20;99.90;;;;;;5078631;28;20043;-50
2023/08/17 01:12:27;;;;;;;6.65;2.88;;;16.10;99.90;;;;;;5066997;28;20098;-53
2023/08/17 01:15:27;;;;;;;6.95;3.03;;;16.10;99.90;;;;;;5073998;28;20060;-51
2023/08/17 01:17:59;;;;;;;3.80;2.50;;;16.00;99.90;;;;;;5050945;28;20139;-52
2023/08/17 01:20:26;;;;;;;7.85;3.20;;;16.00;99.90;;;;;;5060011;28;20033;-54
2023/08/17 01:22:56;;;;;;;7.28;2.83;;;16.00;99.90;;;;;;5068465;28;20410;-54
2023/08/17 01:25:22;;;;;;;9.23;3.78;;;16.00;99.90;;;;;;5052820;28;20174;-54
2023/08/17 01:27:49;;;;;;;7.38;2.10;;;16.00;99.90;;;;;;5058296;28;20523;-53
2023/08/17 01:30:18;;;;;;;5.45;2.60;;;16.00;99.90;;;;;;5081817;28;20198;-54
2023/08/17 01:33:19;;;;;;;7.30;2.90;;;16.00;99.90;;;;;;5061863;28;20056;-54
2023/08/17 01:35:53;;;;;;;5.45;2.78;;;16.00;99.90;;;;;;5025467;28;20503;-51
2023/08/17 01:38:23;;;;;;;5.07;2.58;;;16.00;99.90;;;;;;5066068;28;20043;-53
2023/08/17 01:40:50;;;;;;;6.10;2.80;;;16.00;99.90;;;;;;5065468;28;20043;-52
2023/08/17 01:43:16;;;;;;;6.15;3.15;;;16.00;99.90;;;;;;5061565;28;20043;-54
2023/08/17 01:45:42;;;;;;;4.32;2.38;;;16.00;99.90;;;;;;5065680;28;20388;-51
2023/08/17 01:48:08;;;;;;;9.25;3.35;;;16.00;99.90;;;;;;5066198;28;20067;-51
2023/08/17 01:50:34;;;;;;;5.03;2.55;;;16.00;99.90;;;;;;5082531;28;20041;-52
2023/08/17 01:52:59;;;;;;;9.32;2.83;;;16.00;99.90;;;;;;5060393;28;20044;-54
2023/08/17 01:55:26;;;;;;;7.18;2.38;;;16.00;99.90;;;;;;5065779;28;20575;-52
2023/08/17 01:57:52;;;;;;;7.53;2.55;;;16.00;99.90;;;;;;5055091;28;20123;-51
2023/08/17 02:00:18;;;;;;;6.20;2.60;;;16.10;99.90;;;;;;5058256;28;20115;-53
2023/08/17 02:02:44;;;;;;;5.75;2.70;;;16.10;99.90;;;;;;5068715;28;20040;-51
2023/08/17 02:05:09;;;;;;;5.72;2.50;;;16.10;99.90;;;;;;5063420;28;20029;-52
2023/08/17 02:07:35;;;;;;;7.20;3.00;;;16.10;99.90;;;;;;5065798;28;20080;-52
2023/08/17 02:10:01;;;;;;;10.43;2.80;;;16.10;99.90;;;;;;5050090;28;20506;-52
2023/08/17 02:12:26;;;;;;;4.80;2.58;;;16.10;99.90;;;;;;5042954;28;20103;-52
2023/08/17 02:14:53;;;;;;;10.02;3.75;;;16.10;99.90;;;;;;5062253;28;20044;-53
2023/08/17 02:17:21;;;;;;;6.05;2.58;;;16.10;99.90;;;;;;5076475;28;20059;-55
2023/08/17 02:19:47;;;;;;;8.13;2.90;;;16.10;99.90;;;;;;5057973;28;20128;-51
2023/08/17 02:22:13;;;;;;;7.30;2.95;;;16.10;99.90;;;;;;5070030;28;20040;-53
2023/08/17 02:24:39;;;;;;;6.50;2.92;;;16.10;99.90;;;;;;5069931;28;20060;-53
2023/08/17 02:27:05;;;;;;;8.60;3.40;;;16.10;99.90;;;;;;5061702;28;20418;-53
2023/08/17 02:29:30;;;;;;;6.90;3.20;;;16.10;99.90;;;;;;5055650;28;20043;-51
2023/08/17 02:31:56;;;;;;;8.38;3.00;;;16.10;99.90;;;;;;5062444;28;20047;-51
2023/08/17 02:34:22;;;;;;;8.23;3.22;;;16.10;99.90;;;;;;5060546;28;20051;-51
2023/08/17 02:36:47;;;;;;;7.03;3.03;;;16.10;99.90;;;;;;5066703;28;20044;-52
2023/08/17 02:39:13;;;;;;;6.70;2.85;;;16.10;99.90;;;;;;5046444;28;20389;-51
2023/08/17 02:41:39;;;;;;;6.07;2.65;;;16.10;99.90;;;;;;5061791;28;20045;-55
2023/08/17 02:44:05;;;;;;;4.40;2.28;;;16.00;99.90;;;;;;5058162;28;20033;-51
2023/08/17 02:46:31;;;;;;;4.45;2.78;;;16.00;99.90;;;;;;5066944;28;20036;-50
2023/08/17 02:48:56;;;;;;;6.65;2.72;;;16.10;99.90;;;;;;5064746;28;20035;-55
2023/08/17 02:51:22;;;;;;;9.80;2.70;;;16.10;99.90;;;;;;5045701;28;20068;-50
2023/08/17 02:53:48;;;;;;;4.85;2.30;;;16.10;99.90;;;;;;5076461;28;20049;-50
2023/08/17 02:56:13;;;;;;;7.28;3.00;;;16.00;99.90;;;;;;5062759;28;20387;-53
2023/08/17 02:59:11;;;;;;;7.55;3.10;;;16.00;99.90;;;;;;5052377;28;20399;-50
2023/08/17 03:01:37;;;;;;;8.85;3.75;;;16.00;99.90;;;;;;5053856;28;20036;-52
2023/08/17 03:04:03;;;;;;;6.07;3.30;;;16.00;99.90;;;;;;5070931;28;20105;-51
2023/08/17 03:06:29;;;;;;;5.55;3.22;;;16.00;99.90;;;;;;5069378;28;20067;-52
2023/08/17 03:08:54;;;;;;;6.88;2.95;;;16.00;99.90;;;;;;5071896;28;20037;-53
2023/08/17 03:11:21;;;;;;;7.32;3.10;;;16.00;99.90;;;;;;5082911;28;20669;-53
2023/08/17 03:13:48;;;;;;;7.20;3.40;;;16.00;99.90;;;;;;5056895;28;20403;-55
2023/08/17 03:16:15;;;;;;;7.22;3.20;;;16.00;99.90;;;;;;5062338;28;20036;-55
2023/08/17 03:18:40;;;;;;;8.65;2.83;;;16.00;99.90;;;;;;5063836;28;20045;-54
2023/08/17 03:21:06;;;;;;;8.32;3.30;;;16.00;99.90;;;;;;5059510;28;20062;-51
2023/08/17 03:23:33;;;;;;;9.68;3.22;;;16.00;99.90;;;;;;5081491;28;20145;-55
2023/08/17 03:25:58;;;;;;;7.55;3.03;;;16.00;99.90;;;;;;5051688;28;20161;-52
2023/08/17 03:28:25;;;;;;;6.53;3.00;;;16.00;99.90;;;;;;5060564;28;20507;-52
2023/08/17 03:30:55;;;;;;;6.15;2.28;;;16.00;99.90;;;;;;5059940;28;20082;-53
2023/08/17 03:33:21;;;;;;;7.97;3.35;;;16.00;99.90;;;;;;5056288;28;20260;-52
2023/08/17 03:35:47;;;;;;;4.68;2.15;;;16.00;99.90;;;;;;5057808;28;20051;-55
2023/08/17 03:38:13;;;;;;;6.13;2.58;;;16.00;99.90;;;;;;5041187;28;20032;-55
2023/08/17 03:40:39;;;;;;;7.05;2.58;;;16.00;99.90;;;;;;5064053;28;20085;-55
2023/08/17 03:43:05;;;;;;;8.27;2.38;;;16.00;99.90;;;;;;5061785;28;20139;-53
2023/08/17 03:45:30;;;;;;;4.93;2.53;;;16.00;99.90;;;;;;5060375;28;20171;-55
2023/08/17 03:47:56;;;;;;;6.95;2.47;;;16.00;99.90;;;;;;5058616;28;20675;-55
2023/08/17 03:50:22;;;;;;;7.90;2.17;;;16.00;99.90;;;;;;5063600;28;20036;-53
2023/08/17 03:52:48;;;;;;;7.03;2.50;;;16.00;99.90;;;;;;5063435;28;20323;-51
2023/08/17 03:55:13;;;;;;;4.82;2.17;;;16.00;99.90;;;;;;5070170;28;20044;-55
2023/08/17 03:57:39;;;;;;;5.50;2.33;;;16.00;99.90;;;;;;5060677;28;20041;-53
2023/08/17 04:00:06;;;;;;;7.38;2.53;;;16.00;99.90;;;;;;5069623;28;20036;-54
2023/08/17 04:02:32;;;;;;;7.07;2.83;;;16.00;99.90;;;;;;5061815;28;20606;-55
2023/08/17 04:04:57;;;;;;;7.57;2.42;;;16.00;99.90;;;;;;5061179;28;20155;-53
2023/08/17 04:07:23;;;;;;;7.20;2.60;;;16.00;99.90;;;;;;5070166;28;20052;-52
2023/08/17 04:09:49;;;;;;;7.82;2.70;;;16.00;99.90;;;;;;5078634;28;20044;-54
2023/08/17 04:12:15;;;;;;;6.68;2.97;;;16.00;99.90;;;;;;5054505;28;20484;-54
2023/08/17 04:14:41;;;;;;;5.03;2.42;;;16.00;99.90;;;;;;5069263;28;20032;-54
2023/08/17 04:17:06;;;;;;;4.82;2.88;;;16.00;99.90;;;;;;5061628;28;20048;-53
2023/08/17 04:19:32;;;;;;;7.53;2.72;;;16.10;99.90;;;;;;5060458;28;20037;-54
2023/08/17 04:21:58;;;;;;;4.15;2.50;;;16.10;99.90;;;;;;5061751;28;20086;-52
2023/08/17 04:24:24;;;;;;;7.55;2.58;;;16.10;99.90;;;;;;5060519;28;20504;-55
2023/08/17 04:26:50;;;;;;;5.10;2.63;;;16.10;99.90;;;;;;5060114;28;20072;-51
2023/08/17 04:29:15;;;;;;;5.53;3.10;;;16.10;99.90;;;;;;5068568;28;20034;-54
2023/08/17 04:31:41;;;;;;;4.00;2.22;;;16.10;99.90;;;;;;5068745;28;20036;-54
2023/08/17 04:34:07;;;;;;;4.75;2.50;;;16.20;99.90;;;;;;5063455;28;20522;-52
2023/08/17 04:36:33;;;;;;;5.45;2.35;;;16.20;99.90;;;;;;5071655;28;20507;-54
2023/08/17 04:38:59;;;;;;;5.63;2.17;;;16.20;99.90;;;;;;5067556;28;20407;-51
2023/08/17 04:41:25;;;;;;;6.35;2.30;;;16.20;99.90;;;;;;5062590;28;20039;-55
2023/08/17 04:43:50;;;;;;;7.68;3.35;;;16.20;99.90;;;;;;5053495;28;20498;-54
2023/08/17 04:46:16;;;;;;;7.25;2.70;;;16.20;99.90;;;;;;5094985;28;20044;-53
2023/08/17 04:48:42;;;;;;;5.32;2.15;;;16.20;99.90;;;;;;5066333;28;20321;-54
2023/08/17 04:51:08;;;;;;;5.18;2.58;;;16.20;99.90;;;;;;5089224;28;20767;-56
2023/08/17 04:53:33;;;;;;;6.70;2.67;;;16.30;99.90;;;;;;5057489;28;20037;-56
2023/08/17 04:55:59;;;;;;;7.53;2.47;;;16.20;99.90;;;;;;5071854;28;20536;-52
2023/08/17 04:58:25;;;;;;;4.82;2.40;;;16.30;99.90;;;;;;5054212;28;20116;-54
2023/08/17 05:00:51;;;;;;;7.68;2.40;;;16.30;99.90;;;;;;5052097;28;20045;-55
2023/08/17 05:03:16;;;;;;;4.28;2.00;;;16.20;99.90;;;;;;5077936;28;20084;-53
2023/08/17 05:05:42;;;;;;;5.00;1.98;;;16.20;99.90;;;;;;5067946;28;20528;-50
2023/08/17 05:08:08;;;;;;;6.00;1.88;;;16.20;99.90;;;;;;5065117;28;20047;-51
2023/08/17 05:10:34;;;;;;;8.23;2.25;;;16.20;99.90;;;;;;5026284;28;20044;-50
2023/08/17 05:13:00;;;;;;;2.30;1.42;;;16.20;99.90;;;;;;5056236;28;20067;-54
2023/08/17 05:15:25;;;;;;;6.25;2.10;;;16.20;99.90;;;;;;5027803;28;20044;-54
2023/08/17 05:17:51;;;;;;;4.03;1.55;;;16.20;99.90;;;;;;5062792;28;20091;-55
2023/08/17 05:20:17;;;;;;;4.15;1.48;;;16.20;99.90;;;;;;5057723;28;20476;-51
2023/08/17 05:22:43;;;;;;;4.78;1.70;;;16.20;99.90;;;;;;5060908;28;20047;-52
2023/08/17 05:25:09;;;;;;;4.18;1.90;;;16.20;99.90;;;;;;5053839;28;20040;-53
2023/08/17 05:27:34;;;;;;;5.03;1.30;;;16.20;99.90;;;;;;5046941;28;20376;-56
2023/08/17 05:30:00;;;;;;;3.50;1.50;;;16.20;99.90;;;;;;5058363;28;20434;-53
2023/08/17 05:32:26;;;;;;;5.13;1.65;;;16.30;99.90;;;;;;5010663;28;20496;-56
2023/08/17 05:34:51;;;;;;;7.00;1.75;;;16.30;99.90;;;;;;5056839;28;20039;-54
2023/08/17 05:37:17;;;;;;;3.25;1.40;;;16.30;99.90;;;;;;5065712;28;20032;-54
2023/08/17 05:39:43;;;;;;;3.63;1.98;;;16.30;99.90;;;;;;5061304;28;20036;-54
2023/08/17 05:42:09;;;;;;;5.35;1.58;;;16.30;99.90;;;;;;5060436;28;20048;-51
2023/08/17 05:44:35;;;;;;;4.18;1.40;;;16.30;99.90;;;;;;5085799;28;20044;-52
2023/08/17 05:47:01;;;;;;;2.47;1.27;;;16.30;99.90;;;;;;5069097;28;20251;-52
2023/08/17 05:49:27;;;;;;;4.55;1.40;;;16.30;99.90;;;;;;5049213;28;20104;-54
2023/08/17 05:51:53;;;;;;;7.10;1.70;;;16.40;99.90;;;;;;5059096;28;21587;-54
2023/08/17 05:54:19;;;;;;;9.07;2.05;;;16.40;99.90;;;;;;5085849;28;20028;-51
2023/08/17 05:56:46;;;;;;;3.47;1.35;;;16.40;99.90;;;;;;5038885;28;20119;-51
2023/08/17 05:59:13;;;;;;;4.07;1.55;;;16.40;99.90;;;;;;5051995;28;20036;-53
2023/08/17 06:01:39;;;;;;;4.05;1.50;;;16.50;99.90;;;;;;5056006;28;20041;-55
2023/08/17 06:04:05;;;;;;;9.52;1.90;;;16.60;99.90;;;;;;5049999;28;20510;-54
2023/08/17 06:06:31;;;;;;;3.55;1.40;;;16.70;99.90;;;;;;5063071;28;20091;-58
2023/08/17 06:08:57;;;;;;;3.10;1.67;;;16.70;99.90;;;;;;5065141;28;20088;-52
2023/08/17 06:11:23;;;;;;;4.28;1.45;;;16.90;99.90;;;;;;5067847;28;20068;-52
2023/08/17 06:13:49;;;;;;;5.13;1.75;;;17.00;99.90;;;;;;5071677;28;20044;-53
2023/08/17 06:16:15;;;;;;;4.70;1.80;;;17.10;99.90;;;;;;5089046;28;20036;-51
2023/08/17 06:18:41;;;;;;;4.47;1.55;;;17.30;99.90;;;;;;5066581;28;20474;-53
2023/08/17 06:21:08;;;;;;;2.80;1.15;;;17.40;99.90;;;;;;5056122;28;20032;-52
2023/08/17 06:23:33;;;;;;;3.25;1.40;;;17.50;99.90;;;;;;5064701;28;20048;-51
2023/08/17 06:26:00;;;;;;;11.27;1.88;;;17.60;99.90;;;;;;5061362;28;20411;-50
2023/08/17 06:28:27;;;;;;;3.63;1.40;;;17.70;99.90;;;;;;5060696;28;20376;-54
2023/08/17 06:30:53;;;;;;;5.45;1.88;;;17.80;99.90;;;;;;5079816;28;20032;-50
2023/08/17 06:33:20;;;;;;;6.93;1.45;;;17.90;99.90;;;;;;5055355;28;20044;-51
2023/08/17 06:35:45;;;;;;;4.53;1.63;;;18.00;99.90;;;;;;5058061;28;20048;-54
2023/08/17 06:38:12;;;;;;;5.07;1.60;;;18.00;99.90;;;;;;5057011;28;20381;-54
2023/08/17 06:40:37;;;;;;;3.22;1.33;;;18.10;99.90;;;;;;5047941;28;20084;-53
2023/08/17 06:43:04;;;;;;;7.30;1.38;;;18.10;99.90;;;;;;5058080;28;20064;-52
2023/08/17 06:45:32;;;;;;;6.70;1.38;;;18.10;99.90;;;;;;5060419;28;20041;-52
2023/08/17 06:47:58;;;;;;;6.43;1.40;;;18.10;99.90;;;;;;5068414;28;20048;-53
2023/08/17 06:50:24;;;;;;;7.00;1.35;;;18.10;99.90;;;;;;5069080;28;20506;-53
2023/08/17 06:52:49;;;;;;;3.38;1.42;;;18.10;99.90;;;;;;5041996;28;20094;-52
2023/08/17 06:55:16;;;;;;;6.32;1.63;;;18.20;99.90;;;;;;5057911;28;20028;-51
2023/08/17 06:57:42;;;;;;;4.65;1.50;;;18.30;99.90;;;;;;5041708;28;20044;-54
2023/08/17 07:00:11;;;;;;;4.82;1.27;;;18.30;99.90;;;;;;5046030;28;20044;-53
2023/08/17 07:02:36;;;;;;;6.13;1.70;;;18.40;99.90;;;;;;5067841;28;20355;-54
2023/08/17 07:05:03;;;;;;;4.95;2.03;;;18.40;99.90;;;;;;5059304;28;20040;-54
2023/08/17 07:07:31;;;;;;;4.88;1.52;;;18.60;99.90;;;;;;5075978;28;20132;-55
2023/08/17 07:09:57;;;;;;;3.75;1.60;;;18.60;99.90;;;;;;5054867;28;20591;-54
2023/08/17 07:12:26;;;;;;;7.43;1.67;;;18.80;99.90;;;;;;5041356;28;20498;-51
2023/08/17 07:14:53;;;;;;;4.22;1.38;;;18.90;99.90;;;;;;5062721;28;20051;-54
2023/08/17 07:17:19;;;;;;;4.30;1.58;;;18.90;99.90;;;;;;5060919;28;20041;-51
2023/08/17 07:19:44;;;;;;;5.25;1.50;;;18.90;99.90;;;;;;5067385;28;20094;-50
2023/08/17 07:22:10;;;;;;;5.03;1.45;;;18.90;99.90;;;;;;5070488;28;20047;-51
2023/08/17 07:24:36;;;;;;;4.45;1.40;;;19.00;99.90;;;;;;5054010;28;20032;-52
2023/08/17 07:27:02;;;;;;;3.20;1.30;;;19.00;99.90;;;;;;5052834;28;20060;-51
2023/08/17 07:29:27;;;;;;;3.38;1.35;;;19.10;99.90;;;;;;5046326;28;20157;-56
2023/08/17 07:31:54;;;;;;;5.90;1.35;;;19.30;99.90;;;;;;5068491;28;20036;-52
2023/08/17 07:34:20;;;;;;;5.32;1.52;;;19.40;99.90;;;;;;5046561;28;20051;-54
2023/08/17 07:36:46;;;;;;;4.80;1.30;;;19.50;99.90;;;;;;5060281;28;20040;-56
2023/08/17 07:39:11;;;;;;;3.08;1.40;;;19.70;99.90;;;;;;5062963;28;20037;-51
2023/08/17 07:41:37;;;;;;;5.60;1.20;;;19.90;99.90;;;;;;5062661;28;20534;-53
2023/08/17 07:44:03;;;;;;;5.70;1.20;;;19.80;99.90;;;;;;5050852;28;20041;-51
2023/08/17 07:46:29;;;;;;;3.60;1.40;;;19.90;99.90;;;;;;5064242;28;20093;-54
2023/08/17 07:48:55;;;;;;;31.38;11.52;;;19.70;99.90;;;;;;5065444;28;20048;-55
2023/08/17 07:51:20;;;;;;;6.55;1.58;;;19.60;99.90;;;;;;5056718;28;20131;-51
2023/08/17 07:53:46;;;;;;;5.45;1.40;;;19.50;99.90;;;;;;5069126;28;20052;-55
2023/08/17 07:56:12;;;;;;;4.25;1.15;;;19.50;99.90;;;;;;5059187;28;20029;-56
2023/08/17 07:58:41;;;;;;;4.05;1.02;;;19.50;99.90;;;;;;5062201;28;20097;-53
2023/08/17 08:01:07;;;;;;;5.47;1.50;;;19.50;99.90;;;;;;5059934;28;20094;-55
2023/08/17 08:03:33;;;;;;;4.05;1.15;;;19.40;99.90;;;;;;5090500;28;20047;-54
2023/08/17 08:05:58;;;;;;;3.35;0.90;;;19.30;99.90;;;;;;5053385;28;20616;-54
2023/08/17 08:08:24;;;;;;;3.25;1.08;;;19.10;99.90;;;;;;5069805;28;20036;-55
2023/08/17 08:10:50;;;;;;;5.53;1.30;;;19.00;99.90;;;;;;5050934;28;20415;-54
2023/08/17 08:13:15;;;;;;;3.10;1.10;;;19.00;99.90;;;;;;5072433;28;20151;-55
2023/08/17 08:15:41;;;;;;;4.88;1.40;;;19.00;99.90;;;;;;5059827;28;20041;-53
2023/08/17 08:18:07;;;;;;;2.10;1.10;;;19.00;99.90;;;;;;5085326;28;20093;-53
2023/08/17 08:20:32;;;;;;;4.15;1.13;;;19.00;99.90;;;;;;5053545;28;20068;-55
2023/08/17 08:22:58;;;;;;;3.30;1.20;;;19.10;99.90;;;;;;5071159;28;20622;-56
2023/08/17 08:25:24;;;;;;;2.50;1.02;;;19.00;99.90;;;;;;5062600;28;20060;-55
2023/08/17 08:27:49;;;;;;;5.63;1.17;;;19.00;99.90;;;;;;5054709;28;20613;-55
2023/08/17 08:30:16;;;;;;;2.95;0.88;;;19.10;99.90;;;;;;5077875;28;20046;-51
2023/08/17 08:32:42;;;;;;;3.83;1.02;;;19.10;99.90;;;;;;5058951;28;20044;-55
2023/08/17 08:35:08;;;;;;;5.43;1.30;;;19.20;99.90;;;;;;5056671;28;20044;-56
2023/08/17 08:37:34;;;;;;;2.67;1.20;;;19.30;99.90;;;;;;5060443;28;20044;-55
2023/08/17 08:39:59;;;;;;;4.72;1.33;;;19.50;99.90;;;;;;5058147;28;20705;-57
2023/08/17 08:42:25;;;;;;;1.83;0.80;;;19.70;99.90;;;;;;5061651;28;20037;-55
2023/08/17 08:44:51;;;;;;;3.50;1.15;;;20.00;99.90;;;;;;5073258;28;20282;-55
2023/08/17 08:47:18;;;;;;;5.53;1.30;;;20.20;99.90;;;;;;5057314;28;20114;-53
2023/08/17 08:53:43;;;;;;;5.32;1.60;;;20.60;99.90;;;;;;5071870;28;20400;-56
2023/08/17 08:56:14;;;;;;;2.83;1.48;;;20.60;99.90;;;;;;5078139;28;20183;-56
2023/08/17 08:58:41;;;;;;;5.70;1.60;;;20.80;99.90;;;;;;5062320;28;20391;-55
2023/08/17 09:01:10;;;;;;;3.67;1.17;;;20.80;99.90;;;;;;5063406;28;20052;-53
2023/08/17 09:03:36;;;;;;;4.65;1.40;;;20.70;99.90;;;;;;5062930;28;20044;-55
2023/08/17 09:06:03;;;;;;;2.85;1.20;;;20.60;99.90;;;;;;5064654;28;20037;-56
2023/08/17 09:08:30;;;;;;;4.18;1.20;;;20.40;99.90;;;;;;5060795;28;20047;-56
2023/08/17 09:11:25;;;;;;;3.90;1.25;;;20.30;99.90;;;;;;5063477;28;20068;-56
2023/08/17 09:13:52;;;;;;;3.55;1.08;;;20.00;99.90;;;;;;5058630;28;20040;-53
2023/08/17 09:16:18;;;;;;;5.75;1.52;;;19.90;99.90;;;;;;5077725;28;20041;-56
2023/08/17 09:18:44;;;;;;;3.13;1.13;;;19.90;99.90;;;;;;5059980;28;20043;-56
2023/08/17 09:21:23;;;;;;;1.77;1.00;;;19.90;99.90;;;;;;5066766;28;20135;-56
2023/08/17 09:23:55;;;;;;;6.13;1.10;;;20.00;99.90;;;;;;5053205;28;20530;-54
2023/08/17 09:26:23;;;;;;;5.25;1.23;;;20.10;99.90;;;;;;5076661;28;20045;-56
2023/08/17 09:28:50;;;;;;;2.88;1.20;;;20.10;99.90;;;;;;5058215;28;20048;-56
2023/08/17 09:31:16;;;;;;;3.95;1.05;;;20.30;99.90;;;;;;5057156;28;20047;-55
2023/08/17 09:33:41;;;;;;;1.75;0.93;;;20.40;99.90;;;;;;5068201;28;20387;-55
2023/08/17 09:36:11;;;;;;;6.03;1.35;;;20.50;99.90;;;;;;5060129;28;20036;-56
2023/08/17 09:38:38;;;;;;;4.93;1.30;;;20.60;99.90;;;;;;5056604;28;20037;-56
2023/08/17 09:41:06;;;;;;;4.97;1.30;;;20.70;99.90;;;;;;5047193;28;20064;-56
2023/08/17 09:43:33;;;;;;;5.55;1.63;;;20.70;99.90;;;;;;5068140;28;20036;-56
2023/08/17 09:46:02;;;;;;;5.72;1.40;;;20.60;99.90;;;;;;5056272;28;20048;-56
2023/08/17 09:48:28;;;;;;;4.45;1.60;;;20.60;99.90;;;;;;5055482;28;20048;-56
2023/08/17 09:50:57;;;;;;;3.35;1.55;;;20.70;99.90;;;;;;5066510;28;22842;-56
2023/08/17 09:53:23;;;;;;;4.53;1.20;;;20.70;99.90;;;;;;5056296;28;20059;-56
2023/08/17 09:55:49;;;;;;;5.65;1.65;;;21.00;99.90;;;;;;5057678;28;20045;-54
2023/08/17 09:58:15;;;;;;;4.13;1.20;;;21.10;99.90;;;;;;5039153;28;20041;-56
2023/08/17 10:00:50;;;;;;;1.90;1.13;;;21.20;99.90;;;;;;5070511;28;20037;-56
2023/08/17 10:03:18;;;;;;;6.25;1.45;;;21.10;99.90;;;;;;5052688;28;20048;-55
2023/08/17 10:05:47;;;;;;;5.05;1.30;;;21.00;99.90;;;;;;5056918;28;20049;-56
2023/08/17 10:08:15;;;;;;;5.75;1.27;;;21.00;99.90;;;;;;5063120;28;20036;-56
2023/08/17 10:10:46;;;;;;;8.95;1.98;;;21.10;99.90;;;;;;5059877;28;20071;-54
2023/08/17 10:13:22;;;;;;;5.32;1.15;;;21.20;99.90;;;;;;5061694;28;20128;-56
2023/08/17 10:15:53;;;;;;;3.95;1.30;;;21.20;99.90;;;;;;5044570;28;20096;-54
2023/08/17 10:18:34;;;;;;;4.93;1.65;;;21.50;99.90;;;;;;5065173;28;20402;-55
2023/08/17 10:21:10;;;;;;;3.65;1.40;;;21.70;99.90;;;;;;5056243;28;20041;-52
2023/08/17 10:23:37;;;;;;;4.40;1.40;;;21.80;99.90;;;;;;5063925;28;20434;-56
2023/08/17 10:26:04;;;;;;;4.53;1.77;;;21.80;99.90;;;;;;5060491;28;20181;-53
2023/08/17 10:28:32;;;;;;;5.68;1.38;;;21.90;99.90;;;;;;5065229;28;20067;-55
2023/08/17 10:30:58;;;;;;;3.83;1.50;;;21.90;99.90;;;;;;5062956;28;20040;-56
2023/08/17 10:33:25;;;;;;;4.70;1.55;;;22.10;99.90;;;;;;5065522;28;20037;-55
2023/08/17 10:35:51;;;;;;;5.35;1.40;;;22.20;99.90;;;;;;5057165;28;20145;-56
2023/08/17 10:38:17;;;;;;;5.57;1.42;;;22.30;99.90;;;;;;5053418;28;20055;-57
2023/08/17 10:40:43;;;;;;;3.03;1.30;;;22.30;99.90;;;;;;5057464;28;20041;-55
2023/08/17 10:43:11;;;;;;;3.22;1.13;;;22.20;99.90;;;;;;5045343;28;20132;-56
2023/08/17 10:45:40;;;;;;;4.70;1.48;;;22.00;99.90;;;;;;5065944;28;20051;-56
2023/08/17 10:48:09;;;;;;;6.57;1.63;;;21.90;99.90;;;;;;5070386;28;20041;-55
2023/08/17 10:50:36;;;;;;;3.10;1.50;;;21.80;99.90;;;;;;5061398;28;20037;-56
2023/08/17 10:53:20;;;;;;;6.38;1.40;;;21.70;99.90;;;;;;5061639;28;20046;-55
2023/08/17 10:55:49;;;;;;;4.75;1.17;;;21.70;99.90;;;;;;5049211;28;20106;-56
2023/08/17 10:58:15;;;;;;;8.05;1.95;;;21.60;99.90;;;;;;5061124;28;20484;-56
2023/08/17 11:00:42;;;;;;;5.90;1.55;;;21.70;99.90;;;;;;5059992;28;20050;-57
2023/08/17 11:03:12;;;;;;;6.28;1.75;;;21.70;99.90;;;;;;5060387;28;20080;-56
2023/08/17 11:05:43;;;;;;;5.55;1.98;;;21.80;99.90;;;;;;5076509;22;20074;-56
2023/08/17 11:08:13;;;;;;;5.32;1.58;;;21.90;99.90;;;;;;5086921;28;20047;-56
2023/08/17 11:10:39;;;;;;;5.15;1.80;;;22.00;99.90;;;;;;5103191;28;20047;-54
2023/08/17 11:13:06;;;;;;;3.80;1.60;;;22.00;99.90;;;;;;5105405;28;20031;-57
2023/08/17 11:15:38;;;;;;;5.95;1.77;;;22.20;99.90;;;;;;5099320;28;20063;-57
2023/08/17 11:18:06;;;;;;;5.10;1.60;;;22.20;99.90;;;;;;5098446;28;20044;-56
2023/08/17 11:20:32;;;;;;;4.30;1.83;;;22.30;99.90;;;;;;5083021;28;20058;-56
2023/08/17 11:22:59;;;;;;;5.88;1.77;;;22.20;99.90;;;;;;5069602;28;20047;-57
2023/08/17 11:25:26;;;;;;;3.83;1.75;;;22.30;99.90;;;;;;5087131;28;20078;-57
2023/08/17 11:27:53;;;;;;;4.53;1.42;;;22.20;99.90;;;;;;5083169;28;20043;-56
2023/08/17 11:30:22;;;;;;;4.97;1.80;;;22.30;99.90;;;;;;5084556;28;20047;-54
2023/08/17 11:32:49;;;;;;;8.38;1.73;;;22.30;99.90;;;;;;5080210;28;20109;-56
2023/08/17 11:35:15;;;;;;;6.50;1.50;;;22.40;99.90;;;;;;5090320;28;20043;-55
2023/08/17 11:37:41;;;;;;;7.75;1.60;;;22.40;99.90;;;;;;5089685;28;20253;-56
2023/08/17 11:40:09;;;;;;;4.72;1.38;;;22.30;99.90;;;;;;5109791;28;20501;-57
2023/08/17 11:42:36;;;;;;;8.02;2.45;;;22.30;99.90;;;;;;5089062;28;20044;-56
2023/08/17 11:45:02;;;;;;;6.63;2.35;;;22.30;99.90;;;;;;5088877;28;20122;-55
2023/08/17 11:47:28;;;;;;;3.92;1.48;;;22.30;99.90;;;;;;5083475;28;20130;-56
2023/08/17 11:50:00;;;;;;;6.75;1.85;;;22.40;99.90;;;;;;5076987;28;20075;-56
2023/08/17 11:52:29;;;;;;;6.18;1.70;;;22.40;99.90;;;;;;5088324;28;20063;-56
2023/08/17 11:55:01;;;;;;;4.60;1.70;;;22.40;99.90;;;;;;5089801;28;20387;-56
2023/08/17 11:57:27;;;;;;;6.45;2.42;;;22.40;99.90;;;;;;5063594;28;20058;-57
2023/08/17 11:59:55;;;;;;;6.13;1.98;;;22.20;99.90;;;;;;5083226;28;20046;-57
2023/08/17 12:02:23;;;;;;;5.28;1.73;;;22.10;99.90;;;;;;5087443;28;20036;-54
2023/08/17 12:04:49;;;;;;;5.80;2.25;;;21.90;99.90;;;;;;5102320;27;20072;-55
2023/08/17 12:07:16;;;;;;;6.20;1.77;;;22.00;99.90;;;;;;5086754;28;20031;-56
2023/08/17 12:09:44;;;;;;;5.05;1.85;;;22.00;99.90;;;;;;5065656;28;20509;-57
2023/08/17 12:12:11;;;;;;;6.85;2.03;;;22.00;99.90;;;;;;5067093;28;20036;-57
2023/08/17 12:14:37;;;;;;;4.93;2.00;;;21.80;99.90;;;;;;5109639;28;20062;-56
2023/08/17 12:17:03;;;;;;;5.10;1.60;;;21.70;99.90;;;;;;5070338;28;20415;-54
2023/08/17 12:19:29;;;;;;;39.50;5.75;;;21.70;99.90;;;;;;5089832;28;20096;-56
2023/08/17 12:21:57;;;;;;;7.25;1.85;;;21.70;99.90;;;;;;5083775;28;20055;-56
2023/08/17 12:24:26;;;;;;;6.45;1.73;;;21.70;99.90;;;;;;5091548;28;20051;-56
2023/08/17 12:26:56;;;;;;;4.38;1.60;;;21.70;99.90;;;;;;5067199;28;20131;-56
2023/08/17 12:29:22;;;;;;;6.50;1.70;;;21.60;99.90;;;;;;5090677;28;20039;-56
2023/08/17 12:31:48;;;;;;;6.10;2.50;;;21.70;99.90;;;;;;5091808;28;20058;-56
2023/08/17 12:34:13;;;;;;;4.93;1.70;;;21.70;99.90;;;;;;5088076;28;20036;-56
2023/08/17 12:36:42;;;;;;;5.97;2.05;;;21.60;99.90;;;;;;5083101;28;20075;-53
2023/08/17 12:39:08;;;;;;;5.35;2.10;;;21.40;99.90;;;;;;5058906;28;20043;-54
2023/08/17 12:41:34;;;;;;;6.30;1.77;;;21.30;99.90;;;;;;5086860;28;20036;-56
2023/08/17 12:44:00;;;;;;;4.95;1.70;;;21.20;99.90;;;;;;5087589;28;20524;-54
2023/08/17 12:46:27;;;;;;;5.88;1.88;;;21.20;99.90;;;;;;5091757;28;20520;-56
2023/08/17 12:48:53;;;;;;;6.68;2.50;;;21.20;99.90;;;;;;5088538;28;20043;-54